Time;durP1;ratioP1;P1;durP2;ratioP2;P2;SDS_P1;SDS_P2;PMS_P1;PMS_P2;Temp;Humidity;BMP_temperature;BMP_pressure;BME280_temperature;BME280_humidity;BME280_pressure;Samples;Min_cycle;Max_cycle;Signal;HPM_P1;HPM_P2
2023/03/08 00:01:42;;;;;;;10.63;5.70;;;-4.70;99.90;;;;;;4950359;28;20130;-82
2023/03/08 00:04:11;;;;;;;8.65;5.07;;;-4.70;99.90;;;;;;4945169;29;20071;-82
2023/03/08 00:06:38;;;;;;;8.70;5.32;;;-4.60;99.90;;;;;;4950839;28;20511;-82
2023/03/08 00:09:05;;;;;;;10.07;5.28;;;-4.60;99.90;;;;;;4955065;29;20460;-81
2023/03/08 00:11:33;;;;;;;11.52;5.75;;;-4.60;99.90;;;;;;4951557;28;20059;-81
2023/03/08 00:14:02;;;;;;;8.73;4.55;;;-4.60;99.90;;;;;;4953060;29;20079;-81
2023/03/08 00:16:29;;;;;;;9.27;5.13;;;-4.60;99.90;;;;;;4969381;28;20047;-82
2023/03/08 00:18:58;;;;;;;8.02;4.70;;;-4.60;99.90;;;;;;4954521;28;20508;-81
2023/03/08 00:21:25;;;;;;;9.55;4.95;;;-4.60;99.90;;;;;;4939704;29;20508;-82
2023/03/08 00:23:53;;;;;;;8.00;4.45;;;-4.60;99.90;;;;;;4955450;29;20384;-82
2023/03/08 00:26:21;;;;;;;7.18;4.63;;;-4.60;99.90;;;;;;4954500;28;20456;-81
2023/03/08 00:28:48;;;;;;;8.25;4.22;;;-4.60;99.90;;;;;;4952904;29;20051;-79
2023/03/08 00:31:16;;;;;;;6.20;4.40;;;-4.60;99.90;;;;;;4954705;28;20055;-81
2023/03/08 00:33:43;;;;;;;7.35;5.22;;;-4.60;99.90;;;;;;4956302;29;20054;-80
2023/03/08 00:36:18;;;;;;;10.98;5.63;;;-4.60;99.90;;;;;;4968445;28;20055;-81
2023/03/08 00:38:47;;;;;;;7.32;4.25;;;-4.60;99.90;;;;;;4951527;28;20051;-80
2023/03/08 00:41:15;;;;;;;7.72;5.47;;;-4.70;99.90;;;;;;4952967;29;20047;-81
2023/03/08 00:43:42;;;;;;;6.90;4.57;;;-4.70;99.90;;;;;;4970712;28;20055;-82
2023/03/08 00:46:11;;;;;;;8.00;4.18;;;-4.60;99.90;;;;;;4953850;28;20047;-81
2023/03/08 00:48:38;;;;;;;7.93;5.63;;;-4.60;99.90;;;;;;4953659;28;20123;-81
2023/03/08 00:51:06;;;;;;;6.47;4.50;;;-4.60;99.90;;;;;;4954481;29;20146;-81
2023/03/08 00:53:35;;;;;;;7.18;4.80;;;-4.60;99.90;;;;;;4955197;29;20051;-82
2023/03/08 00:56:02;;;;;;;7.50;4.68;;;-4.50;99.90;;;;;;4951864;28;20051;-81
2023/03/08 00:58:32;;;;;;;7.18;4.35;;;-4.50;99.90;;;;;;4953244;29;20144;-82
2023/03/08 01:01:00;;;;;;;6.35;4.13;;;-4.50;99.90;;;;;;4936976;29;20582;-82
2023/03/08 01:03:29;;;;;;;7.82;4.07;;;-4.50;99.90;;;;;;4954647;29;20054;-79
2023/03/08 01:05:58;;;;;;;6.72;4.45;;;-4.50;99.90;;;;;;4953958;28;20431;-82
2023/03/08 01:08:26;;;;;;;7.22;4.97;;;-4.60;99.90;;;;;;4953861;28;20047;-81
2023/03/08 01:10:58;;;;;;;12.23;5.05;;;-4.60;99.90;;;;;;4953258;28;20062;-82
2023/03/08 01:13:27;;;;;;;7.53;4.50;;;-4.60;99.90;;;;;;4952411;28;20138;-82
2023/03/08 01:15:54;;;;;;;7.85;5.00;;;-4.60;99.90;;;;;;4952055;28;20050;-82
2023/03/08 01:18:22;;;;;;;8.82;4.70;;;-4.60;99.90;;;;;;4954617;28;20051;-82
2023/03/08 01:20:56;;;;;;;7.57;4.30;;;-4.50;99.90;;;;;;4955046;28;20102;-82
2023/03/08 01:23:24;;;;;;;7.88;4.68;;;-4.50;99.90;;;;;;4952745;28;20051;-81
2023/03/08 01:26:00;;;;;;;8.05;4.50;;;-4.60;99.90;;;;;;4936780;29;20051;-80
2023/03/08 01:28:27;;;;;;;7.88;4.18;;;-4.60;99.90;;;;;;4945143;29;20607;-81
2023/03/08 01:30:55;;;;;;;7.68;4.60;;;-4.60;99.90;;;;;;4935583;29;20050;-80
2023/03/08 01:33:23;;;;;;;5.63;4.10;;;-4.60;99.90;;;;;;4952703;28;20055;-79
2023/03/08 01:35:51;;;;;;;6.00;3.55;;;-4.60;99.90;;;;;;4952360;29;20051;-80
2023/03/08 01:38:18;;;;;;;7.43;4.47;;;-4.70;99.90;;;;;;4952476;29;20091;-79
2023/03/08 01:40:46;;;;;;;8.48;4.75;;;-4.70;99.90;;;;;;4953163;28;20051;-79
2023/03/08 01:43:28;;;;;;;7.65;4.20;;;-4.70;99.90;;;;;;4952214;29;20527;-79
2023/03/08 01:46:18;;;;;;;4.50;3.70;;;-4.70;99.90;;;;;;4952805;28;20401;-80
2023/03/08 01:48:55;;;;;;;6.05;4.28;;;-4.60;99.90;;;;;;4952112;29;20082;-81
2023/03/08 01:51:31;;;;;;;5.03;3.92;;;-4.60;99.90;;;;;;4949491;28;20061;-81
2023/03/08 01:54:03;;;;;;;6.65;4.00;;;-4.60;99.90;;;;;;4946875;29;20074;-81
2023/03/08 01:56:31;;;;;;;5.88;3.85;;;-4.60;99.90;;;;;;4938031;29;20055;-82
2023/03/08 01:59:02;;;;;;;5.05;3.35;;;-4.70;99.90;;;;;;4945354;29;20110;-80
2023/03/08 02:01:29;;;;;;;5.32;3.65;;;-4.70;99.90;;;;;;4934656;29;20523;-79
2023/03/08 02:03:59;;;;;;;7.07;3.67;;;-4.60;99.90;;;;;;4945572;29;20055;-80
2023/03/08 02:06:27;;;;;;;7.03;4.22;;;-4.60;99.90;;;;;;4952536;29;20051;-80
2023/03/08 02:08:56;;;;;;;8.57;4.25;;;-4.70;99.90;;;;;;4951368;29;20050;-80
2023/03/08 02:11:25;;;;;;;3.97;3.28;;;-4.70;99.90;;;;;;4951905;28;20051;-80
2023/03/08 02:13:55;;;;;;;4.88;3.63;;;-4.70;99.90;;;;;;4968007;28;20051;-80
2023/03/08 02:16:25;;;;;;;6.93;4.68;;;-4.70;99.90;;;;;;4951619;29;20048;-80
2023/03/08 02:18:56;;;;;;;6.97;4.25;;;-4.60;99.90;;;;;;4948961;29;20051;-80
2023/03/08 02:21:24;;;;;;;11.48;4.10;;;-4.60;99.90;;;;;;4943945;29;20050;-79
2023/03/08 02:23:55;;;;;;;6.03;4.55;;;-4.70;99.90;;;;;;4938760;29;20042;-79
2023/03/08 02:26:23;;;;;;;8.07;4.32;;;-4.70;99.90;;;;;;4947391;28;20095;-79
2023/03/08 02:28:50;;;;;;;8.25;4.15;;;-4.60;99.90;;;;;;4942790;29;20043;-79
2023/03/08 02:31:17;;;;;;;7.13;4.45;;;-4.60;99.90;;;;;;4952226;29;20054;-79
2023/03/08 02:33:45;;;;;;;6.95;3.60;;;-4.70;99.90;;;;;;4953526;28;20043;-79
2023/03/08 02:36:12;;;;;;;13.02;5.25;;;-4.60;99.90;;;;;;4952682;28;20059;-80
2023/03/08 02:38:40;;;;;;;5.57;3.78;;;-4.60;99.90;;;;;;4950304;29;20138;-78
2023/03/08 02:41:08;;;;;;;5.88;3.55;;;-4.50;99.90;;;;;;4935346;29;20508;-79
2023/03/08 02:43:36;;;;;;;6.30;3.22;;;-4.50;99.90;;;;;;4952065;28;20102;-79
2023/03/08 02:46:04;;;;;;;7.25;3.55;;;-4.50;99.90;;;;;;4948659;28;20083;-80
2023/03/08 02:48:32;;;;;;;6.15;3.72;;;-4.50;99.90;;;;;;4949772;28;20062;-80
2023/03/08 02:50:59;;;;;;;5.05;3.15;;;-4.50;99.90;;;;;;4935221;29;20496;-80
2023/03/08 02:53:28;;;;;;;4.35;3.30;;;-4.50;99.90;;;;;;4950779;29;20055;-80
2023/03/08 02:55:56;;;;;;;4.07;2.83;;;-4.50;99.90;;;;;;4944076;29;20055;-80
2023/03/08 02:58:25;;;;;;;4.28;3.03;;;-4.40;99.90;;;;;;4933756;29;20146;-81
2023/03/08 03:00:53;;;;;;;3.22;2.60;;;-4.40;99.90;;;;;;4934687;29;20051;-80
2023/03/08 03:03:20;;;;;;;3.60;2.67;;;-4.40;99.90;;;;;;4951466;28;20094;-81
2023/03/08 03:05:51;;;;;;;3.17;2.80;;;-4.40;99.90;;;;;;4949566;28;20464;-80
2023/03/08 03:08:25;;;;;;;3.38;2.25;;;-4.40;99.90;;;;;;4967393;28;20058;-81
2023/03/08 03:10:55;;;;;;;3.58;2.78;;;-4.40;99.90;;;;;;4935668;29;20459;-81
2023/03/08 03:13:27;;;;;;;4.70;2.58;;;-4.50;99.90;;;;;;4949307;29;20468;-81
2023/03/08 03:15:54;;;;;;;3.90;2.60;;;-4.50;99.90;;;;;;4933035;29;20588;-80
2023/03/08 03:18:22;;;;;;;2.83;2.53;;;-4.50;99.90;;;;;;4951406;29;20043;-80
2023/03/08 03:20:49;;;;;;;4.55;3.22;;;-4.50;99.90;;;;;;4952827;28;20436;-81
2023/03/08 03:23:17;;;;;;;3.40;2.83;;;-4.50;99.90;;;;;;4949811;29;20042;-80
2023/03/08 03:25:51;;;;;;;3.63;2.50;;;-4.50;99.90;;;;;;4916357;29;20138;-79
2023/03/08 03:28:21;;;;;;;3.20;2.10;;;-4.50;99.90;;;;;;4951603;29;20126;-81
2023/03/08 03:30:51;;;;;;;3.70;2.40;;;-4.50;99.90;;;;;;4942717;29;20051;-81
2023/03/08 03:33:18;;;;;;;2.92;2.22;;;-4.50;99.90;;;;;;4966415;28;20075;-81
2023/03/08 03:35:46;;;;;;;2.55;2.05;;;-4.40;99.90;;;;;;4935703;29;20161;-79
2023/03/08 03:38:14;;;;;;;3.40;2.10;;;-4.40;99.90;;;;;;4952996;28;20094;-80
2023/03/08 03:40:44;;;;;;;3.35;2.13;;;-4.40;99.90;;;;;;4953449;28;20051;-80
2023/03/08 03:43:12;;;;;;;2.20;1.73;;;-4.40;99.90;;;;;;4971777;28;20102;-80
2023/03/08 03:45:40;;;;;;;4.45;2.15;;;-4.40;99.90;;;;;;4955450;28;20051;-83
2023/03/08 03:48:09;;;;;;;3.15;2.10;;;-4.40;99.90;;;;;;4954990;29;20059;-84
2023/03/08 03:50:38;;;;;;;3.08;2.42;;;-4.30;99.90;;;;;;4951021;28;20070;-83
2023/03/08 03:53:10;;;;;;;2.78;1.80;;;-4.30;99.90;;;;;;4954310;29;20078;-84
2023/03/08 03:55:40;;;;;;;1.70;1.45;;;-4.30;99.90;;;;;;4954581;29;20047;-84
2023/03/08 03:58:08;;;;;;;2.10;1.63;;;-4.20;99.90;;;;;;4953923;29;20138;-82
2023/03/08 04:00:36;;;;;;;3.38;1.80;;;-4.20;99.90;;;;;;4960112;28;20040;-84
2023/03/08 04:03:15;;;;;;;3.08;1.77;;;-4.20;99.90;;;;;;4956531;29;20503;-83
2023/03/08 04:05:43;;;;;;;5.28;2.20;;;-4.20;99.90;;;;;;4953757;29;20058;-85
2023/03/08 04:08:11;;;;;;;1.98;1.40;;;-4.20;99.90;;;;;;4954399;29;20047;-85
2023/03/08 04:10:42;;;;;;;2.47;1.67;;;-4.20;99.90;;;;;;4953812;28;20074;-85
2023/03/08 04:13:11;;;;;;;1.98;1.35;;;-4.20;99.90;;;;;;4970610;28;20058;-85
2023/03/08 04:15:40;;;;;;;1.75;1.25;;;-4.10;99.90;;;;;;4946901;29;20133;-84
2023/03/08 04:18:11;;;;;;;2.45;1.75;;;-4.10;99.90;;;;;;4945001;29;20051;-84
2023/03/08 04:20:45;;;;;;;2.30;1.40;;;-4.10;99.90;;;;;;4935143;29;20110;-83
2023/03/08 04:23:12;;;;;;;1.25;1.15;;;-4.00;99.90;;;;;;4953876;29;20106;-85
2023/03/08 04:25:43;;;;;;;2.22;1.42;;;-4.00;99.90;;;;;;4952881;29;20043;-82
2023/03/08 04:28:14;;;;;;;1.95;1.52;;;-4.00;99.90;;;;;;4953710;29;20043;-84
2023/03/08 04:30:42;;;;;;;2.13;1.55;;;-3.90;99.90;;;;;;4938911;29;20516;-83
2023/03/08 04:33:09;;;;;;;1.98;1.63;;;-3.90;99.90;;;;;;4927825;29;20404;-83
2023/03/08 04:35:46;;;;;;;2.67;1.42;;;-3.90;99.90;;;;;;4967741;28;20046;-83
2023/03/08 04:38:15;;;;;;;2.03;1.50;;;-3.80;99.90;;;;;;4969462;28;20611;-84
2023/03/08 04:41:10;;;;;;;2.60;1.48;;;-3.80;99.90;;;;;;4968641;28;20571;-84
2023/03/08 04:44:03;;;;;;;3.58;1.95;;;-3.70;99.90;;;;;;4949533;29;20535;-83
2023/03/08 04:46:40;;;;;;;1.13;1.10;;;-3.70;99.90;;;;;;4965889;28;20047;-85
2023/03/08 04:49:09;;;;;;;15.68;7.10;;;-3.60;99.90;;;;;;4952513;28;20538;-86
2023/03/08 04:51:43;;;;;;;;;;;-3.60;99.90;;;;;;4955327;28;20436;-85
2023/03/08 04:54:12;;;;;;;3.90;1.63;;;-3.60;99.90;;;;;;4949158;28;19926;-84
2023/03/08 04:56:46;;;;;;;5.78;1.63;;;-3.60;99.90;;;;;;4954063;29;20157;-83
2023/03/08 04:59:15;;;;;;;1.67;1.20;;;-3.60;99.90;;;;;;4937382;29;20055;-86
2023/03/08 05:01:43;;;;;;;2.20;1.75;;;-3.50;99.90;;;;;;4942593;29;20122;-84
2023/03/08 05:04:11;;;;;;;1.40;1.30;;;-3.50;99.90;;;;;;4953484;29;20153;-84
2023/03/08 05:06:40;;;;;;;1.90;1.42;;;-3.50;99.90;;;;;;4970139;28;20122;-85
2023/03/08 05:09:12;;;;;;;2.65;1.38;;;-3.40;99.90;;;;;;4966327;28;20534;-85
2023/03/08 05:11:42;;;;;;;2.33;1.60;;;-3.30;99.90;;;;;;4949726;28;20069;-83
2023/03/08 05:14:15;;;;;;;3.22;1.17;;;-3.30;99.90;;;;;;4948869;29;20062;-84
2023/03/08 05:16:43;;;;;;;1.38;1.15;;;-3.30;99.90;;;;;;4954574;28;20101;-87
2023/03/08 05:19:14;;;;;;;3.72;1.70;;;-3.30;99.90;;;;;;4926451;29;20467;-84
2023/03/08 05:21:49;;;;;;;2.03;1.40;;;-3.20;99.90;;;;;;4932329;29;20142;-84
2023/03/08 05:24:18;;;;;;;1.40;1.10;;;-3.20;99.90;;;;;;4954010;29;20142;-85
2023/03/08 05:26:47;;;;;;;1.90;1.10;;;-3.10;99.90;;;;;;4946692;28;20067;-85
2023/03/08 05:29:19;;;;;;;1.77;1.40;;;-3.00;99.90;;;;;;4954569;28;20054;-85
2023/03/08 05:31:50;;;;;;;2.60;1.20;;;-2.90;99.90;;;;;;4937217;29;20055;-86
2023/03/08 05:34:29;;;;;;;1.25;1.10;;;-2.90;99.90;;;;;;4934825;29;20130;-82
2023/03/08 05:36:58;;;;;;;2.13;1.38;;;-2.90;99.90;;;;;;4949500;28;20142;-84
2023/03/08 05:39:29;;;;;;;1.70;1.05;;;-2.80;99.90;;;;;;4948849;28;20051;-83
2023/03/08 05:42:07;;;;;;;1.80;1.60;;;-2.80;99.90;;;;;;4949752;28;20039;-84
2023/03/08 05:44:39;;;;;;;11.93;1.83;;;-2.90;99.90;;;;;;4932017;29;20043;-83
2023/03/08 05:48:02;;;;;;;5.55;1.88;;;-2.90;99.90;;;;;;4948848;28;20047;-84
2023/03/08 05:50:37;;;;;;;1.90;1.48;;;-3.00;99.90;;;;;;4947272;28;20528;-77
2023/03/08 05:53:12;;;;;;;7.10;1.50;;;-3.10;99.90;;;;;;4942231;29;20051;-81
2023/03/08 05:55:44;;;;;;;3.58;1.58;;;-3.20;99.90;;;;;;4945390;28;20057;-80
2023/03/08 05:58:13;;;;;;;2.55;1.70;;;-3.20;99.90;;;;;;4933341;29;20512;-76
2023/03/08 06:00:40;;;;;;;6.22;1.92;;;-3.30;99.90;;;;;;4951095;28;20050;-76
2023/03/08 06:03:08;;;;;;;1.83;1.35;;;-3.30;99.90;;;;;;4951196;29;20062;-78
2023/03/08 06:05:38;;;;;;;2.30;1.92;;;-3.30;99.90;;;;;;4949280;29;20071;-77
2023/03/08 06:08:06;;;;;;;5.07;2.20;;;-3.40;99.90;;;;;;4951088;29;20048;-81
2023/03/08 06:10:35;;;;;;;5.28;2.38;;;-3.40;99.90;;;;;;4947174;29;20048;-75
2023/03/08 06:13:05;;;;;;;2.92;1.92;;;-3.50;99.90;;;;;;4950071;29;20058;-75
2023/03/08 06:15:32;;;;;;;4.18;2.25;;;-3.60;99.90;;;;;;4949145;29;20072;-79
2023/03/08 06:18:00;;;;;;;2.78;2.08;;;-3.60;99.90;;;;;;4941571;29;20055;-81
2023/03/08 06:20:29;;;;;;;2.55;1.85;;;-3.60;99.90;;;;;;4964466;28;20151;-76
2023/03/08 06:22:56;;;;;;;3.78;2.30;;;-3.60;99.90;;;;;;4957874;28;20047;-77
2023/03/08 06:25:25;;;;;;;6.75;2.13;;;-3.50;99.90;;;;;;4945876;28;20073;-75
2023/03/08 06:27:53;;;;;;;7.65;2.72;;;-3.50;99.90;;;;;;4953161;28;20058;-75
2023/03/08 06:30:32;;;;;;;2.45;2.03;;;-3.40;99.90;;;;;;4945713;28;20138;-82
2023/03/08 06:33:00;;;;;;;3.35;2.08;;;-3.30;99.90;;;;;;4960847;28;20055;-80
2023/03/08 06:35:30;;;;;;;7.85;2.33;;;-3.30;99.90;;;;;;4941033;29;20052;-80
2023/03/08 06:38:02;;;;;;;3.03;1.60;;;-3.30;99.90;;;;;;4939715;29;20070;-80
2023/03/08 06:40:36;;;;;;;3.05;2.15;;;-3.30;99.90;;;;;;4941473;28;20555;-79
2023/03/08 06:43:07;;;;;;;6.10;2.78;;;-3.30;99.90;;;;;;4944954;29;20142;-77
2023/03/08 06:45:39;;;;;;;6.03;2.53;;;-3.30;99.90;;;;;;4944150;28;20051;-82
2023/03/08 06:48:08;;;;;;;4.53;2.55;;;-3.30;99.90;;;;;;4956415;28;20058;-83
2023/03/08 06:50:38;;;;;;;5.30;3.08;;;-3.30;99.90;;;;;;4946379;29;20079;-82
2023/03/08 06:53:06;;;;;;;3.55;2.30;;;-3.20;99.90;;;;;;4939886;29;20055;-80
2023/03/08 06:55:45;;;;;;;5.50;2.45;;;-3.20;99.90;;;;;;4921679;29;20142;-81
2023/03/08 06:58:12;;;;;;;3.13;2.08;;;-3.20;99.90;;;;;;4943219;29;20135;-82
2023/03/08 07:00:46;;;;;;;5.15;2.80;;;-3.20;99.90;;;;;;4941071;28;20131;-82
2023/03/08 07:03:16;;;;;;;7.38;3.10;;;-3.20;99.90;;;;;;4941801;29;20539;-83
2023/03/08 07:05:44;;;;;;;6.20;2.33;;;-3.20;99.90;;;;;;4944909;28;20479;-80
2023/03/08 07:08:11;;;;;;;8.73;3.55;;;-3.10;99.90;;;;;;4942268;29;20044;-80
2023/03/08 07:10:39;;;;;;;5.57;2.83;;;-3.10;99.90;;;;;;4943576;29;20055;-79
2023/03/08 07:13:07;;;;;;;10.00;3.63;;;-3.00;99.90;;;;;;4941651;29;20578;-80
2023/03/08 07:15:39;;;;;;;6.97;3.20;;;-2.90;99.90;;;;;;4950955;28;20431;-80
2023/03/08 07:18:08;;;;;;;7.50;3.85;;;-2.80;99.90;;;;;;4952411;29;20063;-80
2023/03/08 07:20:35;;;;;;;7.60;3.15;;;-2.80;99.90;;;;;;4937978;29;20114;-78
2023/03/08 07:23:03;;;;;;;6.95;2.95;;;-2.70;99.90;;;;;;4945135;29;20530;-78
2023/03/08 07:25:34;;;;;;;5.95;2.08;;;-2.70;99.90;;;;;;4936110;29;20047;-79
2023/03/08 07:28:02;;;;;;;3.97;2.08;;;-2.60;99.90;;;;;;4953077;28;20369;-77
2023/03/08 07:30:30;;;;;;;6.10;2.40;;;-2.40;99.90;;;;;;4952141;28;20054;-78
2023/03/08 07:32:58;;;;;;;3.38;2.13;;;-2.20;99.90;;;;;;4952080;28;20138;-78
2023/03/08 07:35:27;;;;;;;1.98;1.25;;;-2.10;99.90;;;;;;4939337;28;20142;-78
2023/03/08 07:37:54;;;;;;;3.47;2.42;;;-2.20;99.90;;;;;;4945029;28;20515;-77
2023/03/08 07:40:22;;;;;;;4.32;2.10;;;-2.30;99.90;;;;;;4944635;28;20054;-79
2023/03/08 07:42:50;;;;;;;3.88;2.13;;;-2.40;99.90;;;;;;4945373;29;20051;-82
2023/03/08 07:45:29;;;;;;;3.75;2.00;;;-2.50;99.90;;;;;;4945851;29;20051;-82
2023/03/08 07:47:58;;;;;;;2.40;1.92;;;-2.50;99.90;;;;;;4949130;28;20083;-81
2023/03/08 07:50:27;;;;;;;4.22;2.50;;;-2.60;99.90;;;;;;4940442;28;20043;-81
2023/03/08 07:52:56;;;;;;;3.03;2.15;;;-2.60;99.90;;;;;;4947652;29;20047;-84
2023/03/08 07:55:24;;;;;;;4.53;2.80;;;-2.50;99.90;;;;;;4949315;28;20036;-83
2023/03/08 07:57:51;;;;;;;4.95;2.35;;;-2.50;99.90;;;;;;4948505;29;20494;-81
2023/03/08 08:00:21;;;;;;;3.28;2.53;;;-2.40;99.90;;;;;;4948145;28;20074;-85
2023/03/08 08:02:50;;;;;;;9.52;2.88;;;-2.40;99.90;;;;;;4947792;28;20058;-83
2023/03/08 08:05:20;;;;;;;4.47;2.45;;;-2.30;99.90;;;;;;4947536;28;20098;-83
2023/03/08 08:07:54;;;;;;;2.95;2.40;;;-2.20;99.90;;;;;;4946538;29;20436;-80
2023/03/08 08:10:26;;;;;;;3.08;2.40;;;-2.00;99.90;;;;;;4949249;28;20051;-82
2023/03/08 08:12:54;;;;;;;4.60;2.70;;;-1.90;99.90;;;;;;4950572;28;20103;-82
2023/03/08 08:15:26;;;;;;;5.15;3.30;;;-1.90;99.90;;;;;;4943332;28;20090;-81
2023/03/08 08:17:54;;;;;;;5.07;3.20;;;-2.00;99.90;;;;;;4945501;29;20055;-80
2023/03/08 08:20:21;;;;;;;4.65;3.13;;;-2.00;99.90;;;;;;4945416;28;20130;-80
2023/03/08 08:22:52;;;;;;;5.35;3.03;;;-1.70;99.90;;;;;;4946753;28;20053;-89
2023/03/08 08:25:26;;;;;;;4.22;2.50;;;-1.50;99.90;;;;;;4949375;29;20051;-80
2023/03/08 08:27:54;;;;;;;3.70;2.67;;;-1.60;99.90;;;;;;4948909;29;20055;-83
2023/03/08 08:30:22;;;;;;;4.15;2.72;;;-1.70;99.90;;;;;;4945426;29;20472;-84
2023/03/08 08:32:49;;;;;;;5.97;3.00;;;-1.60;99.90;;;;;;4951004;28;20102;-81
2023/03/08 08:35:17;;;;;;;5.95;3.10;;;-1.70;99.90;;;;;;4946990;28;20403;-83
2023/03/08 08:37:45;;;;;;;6.07;2.88;;;-1.70;99.90;;;;;;4945013;29;20428;-81
2023/03/08 08:40:15;;;;;;;5.80;3.58;;;-1.80;99.90;;;;;;4952223;28;20075;-82
2023/03/08 08:42:45;;;;;;;6.68;3.00;;;-1.80;99.90;;;;;;4953916;29;20102;-82
2023/03/08 08:45:12;;;;;;;5.38;2.97;;;-1.80;99.90;;;;;;4955745;28;20055;-80
2023/03/08 08:47:40;;;;;;;4.13;2.58;;;-1.70;99.90;;;;;;4955476;28;20085;-78
2023/03/08 08:50:12;;;;;;;5.88;3.38;;;-1.60;99.90;;;;;;4949730;29;20475;-77
2023/03/08 08:52:40;;;;;;;4.22;2.63;;;-1.60;99.90;;;;;;4948685;29;20074;-77
2023/03/08 08:55:09;;;;;;;4.55;2.83;;;-1.60;99.90;;;;;;4944057;29;20067;-78
2023/03/08 08:57:38;;;;;;;6.43;3.50;;;-1.50;99.90;;;;;;4920456;29;20043;-79
2023/03/08 09:00:08;;;;;;;5.68;3.70;;;-1.50;99.90;;;;;;4934551;29;20081;-76
2023/03/08 09:02:36;;;;;;;5.13;3.10;;;-1.60;99.90;;;;;;4935491;29;20052;-75
2023/03/08 09:05:04;;;;;;;5.57;3.55;;;-1.50;99.90;;;;;;4950267;29;20134;-78
2023/03/08 09:07:31;;;;;;;5.20;3.00;;;-1.50;99.90;;;;;;4952100;29;20039;-79
2023/03/08 09:10:00;;;;;;;4.93;3.17;;;-1.40;99.90;;;;;;4950842;29;20063;-79
2023/03/08 09:12:30;;;;;;;6.30;3.65;;;-1.40;99.90;;;;;;4948020;28;20150;-76
2023/03/08 09:14:59;;;;;;;6.85;3.58;;;-1.30;99.90;;;;;;4951373;28;20420;-76
2023/03/08 09:17:26;;;;;;;9.23;3.80;;;-1.30;99.90;;;;;;4951505;28;20051;-79
2023/03/08 09:19:54;;;;;;;3.40;3.03;;;-1.20;99.90;;;;;;4947000;28;20051;-80
2023/03/08 09:22:21;;;;;;;4.30;3.22;;;-1.10;99.90;;;;;;4948229;28;20106;-78
2023/03/08 09:24:50;;;;;;;4.22;3.40;;;-1.10;99.90;;;;;;4951365;28;20075;-78
2023/03/08 09:27:20;;;;;;;6.63;3.67;;;-1.10;99.90;;;;;;4950518;29;20055;-77
2023/03/08 09:29:47;;;;;;;6.90;3.80;;;-1.00;99.90;;;;;;4949214;29;20110;-77
2023/03/08 09:32:18;;;;;;;7.00;3.88;;;-0.90;99.90;;;;;;4944565;28;20044;-77
2023/03/08 09:34:46;;;;;;;9.48;3.60;;;-0.80;99.90;;;;;;4945890;29;20055;-79
2023/03/08 09:37:14;;;;;;;6.72;4.35;;;-0.90;99.90;;;;;;4953179;28;20043;-79
2023/03/08 09:39:45;;;;;;;8.90;4.18;;;-0.90;99.90;;;;;;4944206;29;20142;-80
2023/03/08 09:42:22;;;;;;;11.57;4.97;;;-0.80;99.90;;;;;;4938911;29;20496;-79
2023/03/08 09:45:06;;;;;;;4.65;3.58;;;-0.80;99.90;;;;;;4934330;29;20047;-80
2023/03/08 09:47:45;;;;;;;7.72;3.95;;;-0.60;99.90;;;;;;4940289;29;20051;-79
2023/03/08 09:50:33;;;;;;;8.13;4.07;;;-0.50;99.90;;;;;;4943478;29;20044;-77
2023/03/08 09:53:11;;;;;;;7.43;4.32;;;-0.40;99.90;;;;;;4939261;29;20146;-76
2023/03/08 09:55:49;;;;;;;7.20;4.40;;;-0.20;99.90;;;;;;4942106;28;20086;-80
2023/03/08 09:58:31;;;;;;;9.43;5.60;;;-0.10;99.90;;;;;;4957383;28;20070;-80
2023/03/08 10:01:14;;;;;;;8.95;5.43;;;0.10;99.90;;;;;;4949453;28;20928;-79
2023/03/08 10:04:34;;;;;;;7.22;5.22;;;0.40;99.90;;;;;;4944545;29;20051;-82
2023/03/08 10:07:27;;;;;;;9.27;5.25;;;0.60;99.90;;;;;;4944608;29;20523;-76
2023/03/08 10:10:12;;;;;;;6.80;4.65;;;0.60;99.90;;;;;;4939019;29;20055;-75
2023/03/08 10:12:55;;;;;;;9.02;5.75;;;0.70;99.90;;;;;;4948337;29;20507;-76
2023/03/08 10:15:28;;;;;;;6.53;4.95;;;0.80;99.90;;;;;;4962225;28;20548;-82
2023/03/08 10:18:00;;;;;;;9.63;6.00;;;1.20;99.90;;;;;;4933282;29;20079;-81
2023/03/08 10:20:34;;;;;;;16.00;7.97;;;1.30;99.90;;;;;;4942353;28;20062;-81
2023/03/08 10:23:10;;;;;;;8.20;5.60;;;1.40;99.90;;;;;;4945066;29;20167;-82
2023/03/08 10:25:39;;;;;;;13.18;6.13;;;1.40;99.90;;;;;;4938856;29;20495;-81
2023/03/08 10:28:14;;;;;;;8.68;5.93;;;1.50;99.90;;;;;;4939744;29;20047;-79
2023/03/08 10:30:45;;;;;;;9.45;6.43;;;1.50;99.90;;;;;;4940092;29;20516;-80
2023/03/08 10:33:18;;;;;;;9.38;5.68;;;1.40;99.90;;;;;;4942618;28;20550;-80
2023/03/08 10:35:58;;;;;;;9.70;6.38;;;1.20;99.90;;;;;;4939491;28;20054;-81
2023/03/08 10:38:30;;;;;;;13.48;6.13;;;1.10;99.90;;;;;;4938329;29;20139;-85
2023/03/08 10:41:04;;;;;;;11.73;6.55;;;1.00;99.90;;;;;;4937070;29;20047;-83
2023/03/08 10:43:36;;;;;;;12.98;7.03;;;0.90;99.90;;;;;;4936043;29;21002;-80
2023/03/08 10:46:12;;;;;;;9.50;6.40;;;0.80;99.90;;;;;;4931958;29;20496;-80
2023/03/08 10:48:40;;;;;;;9.85;6.80;;;0.90;99.90;;;;;;4938056;29;20537;-79
2023/03/08 10:51:20;;;;;;;13.38;7.85;;;0.90;99.90;;;;;;4934591;29;20055;-80
2023/03/08 10:53:57;;;;;;;13.38;6.80;;;0.80;99.90;;;;;;4934470;29;20059;-78
2023/03/08 10:56:35;;;;;;;17.38;7.90;;;0.80;99.90;;;;;;4940980;29;20058;-81
2023/03/08 10:59:20;;;;;;;14.68;7.60;;;0.90;99.90;;;;;;4923773;29;20043;-83
2023/03/08 11:01:50;;;;;;;10.38;6.43;;;1.00;99.90;;;;;;4938555;28;20431;-84
2023/03/08 11:04:21;;;;;;;13.30;7.35;;;1.20;99.90;;;;;;4950752;28;20111;-79
2023/03/08 11:06:52;;;;;;;10.50;7.50;;;1.30;99.90;;;;;;4940042;28;20051;-78
2023/03/08 11:09:24;;;;;;;14.52;7.68;;;1.30;99.90;;;;;;4940661;29;20082;-77
2023/03/08 11:11:54;;;;;;;11.00;7.40;;;1.30;99.90;;;;;;4952433;28;20046;-77
2023/03/08 11:14:23;;;;;;;12.05;7.90;;;1.30;99.90;;;;;;4930254;29;20060;-80
2023/03/08 11:17:16;;;;;;;9.95;6.68;;;1.30;99.90;;;;;;4943632;29;20043;-81
2023/03/08 11:20:09;;;;;;;;;;;1.40;99.90;;;;;;4962786;28;20053;-78
2023/03/08 11:23:05;;;;;;;14.43;7.35;;;1.40;99.90;;;;;;4945654;29;19926;-76
2023/03/08 11:25:41;;;;;;;13.27;7.55;;;1.40;99.90;;;;;;4939515;29;20075;-78
2023/03/08 11:28:42;;;;;;;12.95;7.95;;;1.30;99.90;;;;;;4949059;29;20416;-78
2023/03/08 11:31:20;;;;;;;11.75;7.40;;;1.20;99.90;;;;;;4947940;28;20595;-79
2023/03/08 11:34:26;;;;;;;13.35;8.13;;;1.20;99.90;;;;;;4947694;28;20059;-80
2023/03/08 11:37:03;;;;;;;14.73;7.55;;;1.20;99.90;;;;;;4948618;28;20059;-81
2023/03/08 11:39:36;;;;;;;12.55;7.55;;;1.20;99.90;;;;;;4946632;29;20114;-79
2023/03/08 11:42:18;;;;;;;13.50;7.30;;;1.10;99.90;;;;;;4948444;28;20047;-81
2023/03/08 11:45:16;;;;;;;11.23;7.22;;;1.10;99.90;;;;;;4943941;29;20060;-79
2023/03/08 11:48:50;;;;;;;8.93;6.70;;;1.00;99.90;;;;;;4941026;29;20405;-79
2023/03/08 11:51:24;;;;;;;11.68;7.55;;;1.00;99.90;;;;;;4931926;29;20142;-78
2023/03/08 11:54:06;;;;;;;12.60;7.57;;;1.00;99.90;;;;;;4930460;29;20056;-81
2023/03/08 11:56:46;;;;;;;14.50;8.52;;;1.00;99.90;;;;;;4937056;29;20054;-75
2023/03/08 11:59:29;;;;;;;14.85;8.38;;;1.10;99.90;;;;;;4931555;29;20091;-80
2023/03/08 12:02:02;;;;;;;20.58;8.07;;;1.10;99.90;;;;;;4942087;29;20062;-79
2023/03/08 12:04:39;;;;;;;15.80;8.02;;;1.10;99.90;;;;;;4948617;29;20143;-80
2023/03/08 12:07:15;;;;;;;15.70;8.50;;;1.10;99.90;;;;;;4940603;29;20058;-81
2023/03/08 12:09:53;;;;;;;16.45;8.27;;;1.10;99.90;;;;;;4947263;29;20054;-79
2023/03/08 12:12:29;;;;;;;12.40;8.13;;;1.20;99.90;;;;;;4942253;29;20162;-78
2023/03/08 12:15:09;;;;;;;16.30;7.82;;;1.30;99.90;;;;;;4942130;29;20410;-78
2023/03/08 12:17:42;;;;;;;13.63;8.35;;;1.30;99.90;;;;;;4940860;29;20121;-80
2023/03/08 12:20:14;;;;;;;20.88;8.73;;;1.60;99.90;;;;;;4939260;28;20055;-81
2023/03/08 12:22:47;;;;;;;14.30;8.82;;;1.80;99.90;;;;;;4933450;29;20058;-80
2023/03/08 12:25:26;;;;;;;18.95;9.20;;;1.90;99.90;;;;;;4937083;29;20165;-81
2023/03/08 12:28:02;;;;;;;13.57;8.02;;;2.00;99.90;;;;;;4932376;29;20539;-79
2023/03/08 12:30:44;;;;;;;12.32;8.23;;;2.00;99.90;;;;;;4938273;29;20114;-81
2023/03/08 12:33:18;;;;;;;14.55;8.15;;;2.10;99.90;;;;;;4945890;29;20059;-80
2023/03/08 12:36:06;;;;;;;12.90;7.97;;;2.20;99.90;;;;;;4953308;28;20130;-81
2023/03/08 12:38:39;;;;;;;14.32;7.85;;;2.00;99.90;;;;;;4937621;29;20087;-81
2023/03/08 12:41:24;;;;;;;15.93;7.82;;;2.00;99.90;;;;;;4945938;29;20051;-80
2023/03/08 12:44:05;;;;;;;14.65;7.63;;;1.90;99.90;;;;;;4952666;28;20051;-80
2023/03/08 12:46:49;;;;;;;11.07;7.13;;;1.90;99.90;;;;;;4949939;29;20055;-79
2023/03/08 12:49:22;;;;;;;10.55;6.55;;;2.00;99.90;;;;;;4939259;29;20057;-78
2023/03/08 12:52:02;;;;;;;10.07;5.57;;;2.00;99.90;;;;;;4933084;29;20056;-78
2023/03/08 12:54:37;;;;;;;8.43;5.13;;;2.10;99.90;;;;;;4932692;29;20164;-78
2023/03/08 12:57:19;;;;;;;9.55;5.30;;;2.10;99.90;;;;;;4937745;29;20607;-81
2023/03/08 13:00:30;;;;;;;14.30;6.10;;;2.10;99.90;;;;;;4933748;29;20464;-81
2023/03/08 13:03:06;;;;;;;7.68;5.22;;;2.10;99.90;;;;;;4930955;29;20118;-81
2023/03/08 13:05:36;;;;;;;6.28;4.68;;;2.10;99.90;;;;;;4943861;29;20055;-77
2023/03/08 13:08:48;;;;;;;10.52;5.63;;;2.10;99.90;;;;;;4947211;28;20059;-75
2023/03/08 13:11:25;;;;;;;8.40;4.93;;;2.00;99.90;;;;;;4922092;29;20056;-82
2023/03/08 13:18:17;;;;;;;5.27;4.23;;;1.80;99.90;;;;;;4903743;28;20047;-74
2023/03/08 13:21:27;;;;;;;7.00;4.45;;;1.70;99.90;;;;;;4941955;29;20056;-75